createdAt,value
2019-05-17T00:00:07.731Z,0.00
2019-05-17T00:01:07.742Z,0.00
2019-05-17T00:02:07.735Z,0.00
2019-05-17T00:03:07.735Z,0.00
2019-05-17T00:04:07.690Z,0.00
2019-05-17T00:05:07.679Z,0.00
2019-05-17T00:06:08.340Z,0.00
2019-05-17T00:07:07.680Z,0.00
2019-05-17T00:08:07.923Z,0.00
2019-05-17T00:09:07.638Z,0.00
2019-05-17T00:10:07.631Z,0.00
2019-05-17T00:11:07.609Z,0.00
2019-05-17T00:12:08.836Z,0.00
2019-05-17T00:13:10.971Z,0.00
2019-05-17T00:14:08.578Z,0.00
2019-05-17T00:15:07.568Z,0.00
2019-05-17T00:16:07.564Z,0.00
2019-05-17T00:17:07.574Z,0.00
2019-05-17T00:18:07.537Z,0.00
2019-05-17T00:19:07.676Z,0.00
2019-05-17T00:20:07.521Z,0.00
2019-05-17T00:21:07.858Z,0.00
2019-05-17T00:22:07.577Z,0.00
2019-05-17T00:23:07.491Z,0.00
2019-05-17T00:24:07.500Z,0.00
2019-05-17T00:25:07.625Z,0.00
2019-05-17T00:26:07.466Z,0.00
2019-05-17T00:27:07.467Z,0.00
2019-05-17T00:28:07.564Z,0.00
2019-05-17T00:29:07.418Z,0.00
2019-05-17T00:30:07.413Z,0.00
2019-05-17T00:31:07.405Z,0.00
2019-05-17T00:32:07.417Z,0.00
2019-05-17T00:33:08.059Z,0.00
2019-05-17T00:34:07.500Z,0.00
2019-05-17T00:35:07.612Z,0.00
2019-05-17T00:36:07.345Z,0.00
2019-05-17T00:37:07.380Z,0.00
2019-05-17T00:38:07.325Z,0.00
2019-05-17T00:39:08.293Z,0.00
2019-05-17T00:40:07.475Z,0.00
2019-05-17T00:41:07.301Z,0.00
2019-05-17T00:42:07.321Z,0.00
2019-05-17T00:43:07.270Z,0.00
2019-05-17T00:44:07.260Z,0.00
2019-05-17T00:45:07.250Z,0.00
2019-05-17T00:46:07.812Z,0.00
2019-05-17T00:47:07.278Z,0.00
2019-05-17T00:48:07.219Z,0.00
2019-05-17T00:49:07.208Z,0.00
2019-05-17T00:50:07.540Z,0.00
2019-05-17T00:51:10.091Z,0.00
2019-05-17T00:52:07.424Z,0.00
2019-05-17T00:53:07.548Z,0.00
2019-05-17T00:54:07.155Z,0.00
2019-05-17T00:55:07.155Z,0.00
2019-05-17T00:56:07.133Z,0.00
2019-05-17T00:57:07.645Z,0.00
2019-05-17T00:58:07.120Z,0.00
2019-05-17T00:59:07.504Z,0.00
2019-05-17T01:00:08.576Z,0.00
2019-05-17T01:01:08.251Z,0.00
2019-05-17T01:02:07.218Z,0.00
2019-05-17T01:03:07.378Z,0.00
2019-05-17T01:04:07.057Z,0.00
2019-05-17T01:05:07.042Z,0.00
2019-05-17T01:06:07.034Z,0.00
2019-05-17T01:07:07.089Z,0.00
2019-05-17T01:08:07.516Z,0.00
2019-05-17T01:09:07.778Z,0.00
2019-05-17T01:10:07.107Z,0.00
2019-05-17T01:11:07.896Z,0.00
2019-05-17T01:12:07.249Z,0.00
2019-05-17T01:13:07.128Z,0.00
2019-05-17T01:14:06.998Z,0.00
2019-05-17T01:15:07.583Z,0.00
2019-05-17T01:16:07.447Z,0.00
2019-05-17T01:17:07.301Z,0.00
2019-05-17T01:18:07.446Z,0.00
2019-05-17T01:19:07.018Z,0.00
2019-05-17T01:20:07.010Z,0.00
2019-05-17T01:21:06.879Z,0.00
2019-05-17T01:22:07.503Z,0.00
2019-05-17T01:23:07.602Z,0.00
2019-05-17T01:24:07.948Z,0.00
2019-05-17T01:25:06.830Z,0.00
2019-05-17T01:26:07.509Z,0.00
2019-05-17T01:27:06.849Z,0.00
2019-05-17T01:28:07.535Z,0.00
2019-05-17T01:29:06.937Z,0.00
2019-05-17T01:30:06.931Z,0.00
2019-05-17T01:31:07.564Z,0.00
2019-05-17T01:32:06.969Z,0.00
2019-05-17T01:33:06.986Z,0.00
2019-05-17T01:34:07.421Z,0.00
2019-05-17T01:35:07.399Z,0.00
2019-05-17T01:36:07.344Z,0.00
2019-05-17T01:37:06.769Z,0.00
2019-05-17T01:38:07.277Z,0.00
2019-05-17T01:39:15.224Z,0.00
2019-05-17T01:40:07.677Z,0.00
2019-05-17T01:41:07.061Z,0.00
2019-05-17T01:42:06.837Z,0.00
2019-05-17T01:43:07.875Z,0.00
2019-05-17T01:44:07.507Z,0.00
2019-05-17T01:45:07.248Z,0.00
2019-05-17T01:46:06.865Z,0.00
2019-05-17T01:47:07.426Z,0.00
2019-05-17T01:48:07.281Z,0.00
2019-05-17T01:49:06.975Z,0.00
2019-05-17T01:50:07.435Z,0.00
2019-05-17T01:51:07.535Z,0.00
2019-05-17T01:52:07.530Z,0.00
2019-05-17T01:53:07.331Z,0.00
2019-05-17T01:54:06.936Z,0.00
2019-05-17T01:55:06.709Z,0.00
2019-05-17T01:56:06.577Z,0.00
2019-05-17T01:57:07.291Z,0.00
2019-05-17T01:58:07.346Z,0.00
2019-05-17T01:59:06.956Z,0.00
2019-05-17T02:00:06.505Z,0.00
2019-05-17T02:01:07.606Z,0.00
2019-05-17T02:02:07.132Z,0.00
2019-05-17T02:03:07.069Z,0.00
2019-05-17T02:04:06.754Z,0.00
2019-05-17T02:05:06.601Z,0.00
2019-05-17T02:06:07.493Z,0.00
2019-05-17T02:07:06.940Z,0.00
2019-05-17T02:08:06.754Z,0.00
2019-05-17T02:09:06.501Z,0.00
2019-05-17T02:10:07.480Z,0.00
2019-05-17T02:11:07.076Z,0.00
2019-05-17T02:12:06.747Z,0.00
2019-05-17T02:13:06.732Z,0.00
2019-05-17T02:14:07.008Z,0.00
2019-05-17T02:15:06.929Z,0.00
2019-05-17T02:16:07.136Z,0.00
2019-05-17T02:17:06.831Z,0.00
2019-05-17T02:18:07.089Z,0.00
2019-05-17T02:19:06.716Z,0.00
2019-05-17T02:20:06.472Z,0.00
2019-05-17T02:21:06.612Z,0.00
2019-05-17T02:22:07.468Z,0.00
2019-05-17T02:23:07.572Z,0.00
2019-05-17T02:24:07.981Z,0.00
2019-05-17T02:25:07.310Z,0.00
2019-05-17T02:26:06.681Z,0.00
2019-05-17T02:27:06.191Z,0.00
2019-05-17T02:28:06.196Z,0.00
2019-05-17T02:29:06.154Z,0.00
2019-05-17T02:30:06.152Z,0.00
2019-05-17T02:31:06.148Z,0.00
2019-05-17T02:32:06.128Z,0.00
2019-05-17T02:33:06.133Z,0.00
2019-05-17T02:34:06.102Z,0.00
2019-05-17T02:35:06.095Z,0.00
2019-05-17T02:36:06.081Z,0.00
2019-05-17T02:37:06.170Z,0.00
2019-05-17T02:38:06.197Z,0.00
2019-05-17T02:39:06.049Z,0.00
2019-05-17T02:40:08.381Z,0.00
2019-05-17T02:41:06.062Z,0.00
2019-05-17T02:42:06.024Z,0.00
2019-05-17T02:43:06.646Z,0.00
2019-05-17T02:44:06.002Z,0.00
2019-05-17T02:45:05.995Z,0.00
2019-05-17T02:46:05.983Z,0.00
2019-05-17T02:47:05.965Z,0.00
2019-05-17T02:48:05.986Z,0.00
2019-05-17T02:49:06.094Z,0.00
2019-05-17T02:50:06.075Z,0.00
2019-05-17T02:51:05.924Z,0.00
2019-05-17T02:52:05.927Z,0.00
2019-05-17T02:53:05.932Z,0.00
2019-05-17T02:54:05.892Z,0.00
2019-05-17T02:55:05.882Z,0.00
2019-05-17T02:56:07.150Z,0.00
2019-05-17T02:57:05.867Z,0.00
2019-05-17T02:58:05.888Z,0.00
2019-05-17T02:59:05.842Z,0.00
2019-05-17T03:00:05.838Z,0.00
2019-05-17T03:01:05.817Z,0.00
2019-05-17T03:02:06.549Z,0.00
2019-05-17T03:03:05.802Z,0.00
2019-05-17T03:04:05.819Z,0.00
2019-05-17T03:05:05.784Z,0.00
2019-05-17T03:06:05.768Z,0.00
2019-05-17T03:07:05.777Z,0.00
2019-05-17T03:08:05.744Z,0.00
2019-05-17T03:09:05.759Z,0.00
2019-05-17T03:10:18.149Z,0.00
2019-05-17T03:11:06.735Z,0.00
2019-05-17T03:12:05.701Z,0.00
2019-05-17T03:13:05.692Z,0.00
2019-05-17T03:14:05.708Z,0.00
2019-05-17T03:15:05.670Z,0.00
2019-05-17T03:16:05.659Z,0.00
2019-05-17T03:17:05.650Z,0.00
2019-05-17T03:18:05.638Z,0.00
2019-05-17T03:19:05.656Z,0.00
2019-05-17T03:20:05.617Z,0.00
2019-05-17T03:21:05.614Z,0.00
2019-05-17T03:22:07.740Z,0.00
2019-05-17T03:23:05.605Z,0.00
2019-05-17T03:24:05.608Z,0.00
2019-05-17T03:25:05.565Z,0.00
2019-05-17T03:26:05.555Z,0.00
2019-05-17T03:27:05.553Z,0.00
2019-05-17T03:28:05.539Z,0.00
2019-05-17T03:29:05.552Z,0.00
2019-05-17T03:30:05.524Z,0.00
2019-05-17T03:31:08.537Z,0.00
2019-05-17T03:32:08.333Z,0.00
2019-05-17T03:33:07.783Z,0.00
2019-05-17T03:34:06.989Z,0.00
2019-05-17T03:35:07.428Z,0.00
2019-05-17T03:36:07.446Z,0.00
2019-05-17T03:37:06.973Z,0.00
2019-05-17T03:38:05.429Z,0.00
2019-05-17T03:39:05.444Z,0.00
2019-05-17T03:40:23.631Z,0.00
2019-05-17T03:41:17.753Z,5.62
2019-05-17T03:42:06.386Z,5.62
2019-05-17T03:43:05.375Z,5.62
2019-05-17T03:44:05.405Z,5.62
2019-05-17T03:45:05.354Z,5.62
2019-05-17T03:46:05.344Z,5.62
2019-05-17T03:47:05.345Z,5.62
2019-05-17T03:48:05.465Z,5.62
2019-05-17T03:49:05.343Z,5.62
2019-05-17T03:50:05.310Z,5.62
2019-05-17T03:51:05.293Z,5.62
2019-05-17T03:52:05.281Z,5.62
2019-05-17T03:53:05.279Z,5.62
2019-05-17T03:54:05.288Z,5.62
2019-05-17T03:55:05.250Z,5.62
2019-05-17T03:56:05.238Z,5.62
2019-05-17T03:57:05.914Z,5.62
2019-05-17T03:58:05.222Z,5.62
2019-05-17T03:59:05.234Z,5.62
2019-05-17T04:00:05.194Z,5.62
2019-05-17T04:01:05.186Z,5.62
2019-05-17T04:02:05.178Z,5.62
2019-05-17T04:03:05.179Z,5.62
2019-05-17T04:04:05.184Z,5.62
2019-05-17T04:05:05.222Z,5.62
2019-05-17T04:06:05.145Z,5.62
2019-05-17T04:07:05.130Z,5.62
2019-05-17T04:08:05.110Z,11.25
2019-05-17T04:09:05.138Z,11.25
2019-05-17T04:10:05.103Z,11.25
2019-05-17T04:11:20.429Z,11.25
2019-05-17T04:12:06.088Z,11.25
2019-05-17T04:13:05.060Z,11.25
2019-05-17T04:14:05.086Z,11.25
2019-05-17T04:15:05.039Z,11.25
2019-05-17T04:16:08.880Z,11.25
2019-05-17T04:17:05.026Z,11.25
2019-05-17T04:18:05.029Z,11.25
2019-05-17T04:19:04.996Z,11.25
2019-05-17T04:20:05.010Z,11.25
2019-05-17T04:21:04.974Z,11.25
2019-05-17T04:22:04.991Z,11.25
2019-05-17T04:23:04.964Z,11.25
2019-05-17T04:24:04.941Z,11.25
2019-05-17T04:25:04.959Z,16.88
2019-05-17T04:26:04.924Z,16.88
2019-05-17T04:27:04.912Z,16.88
2019-05-17T04:28:04.902Z,16.88
2019-05-17T04:29:04.911Z,16.88
2019-05-17T04:30:05.861Z,16.88
2019-05-17T04:31:04.890Z,16.88
2019-05-17T04:32:04.870Z,22.50
2019-05-17T04:33:05.478Z,22.50
2019-05-17T04:34:04.838Z,22.50
2019-05-17T04:35:04.859Z,22.50
2019-05-17T04:36:04.817Z,22.50
2019-05-17T04:37:05.794Z,22.50
2019-05-17T04:38:04.809Z,22.50
2019-05-17T04:39:04.785Z,22.50
2019-05-17T04:40:04.800Z,22.50
2019-05-17T04:41:04.763Z,22.50
2019-05-17T04:42:04.755Z,22.50
2019-05-17T04:43:04.744Z,28.12
2019-05-17T04:44:04.738Z,28.12
2019-05-17T04:45:04.744Z,28.12
2019-05-17T04:46:04.737Z,28.12
2019-05-17T04:47:04.702Z,28.12
2019-05-17T04:48:05.355Z,28.12
2019-05-17T04:49:04.681Z,28.12
2019-05-17T04:50:04.698Z,28.12
2019-05-17T04:51:04.660Z,28.12
2019-05-17T04:52:05.517Z,28.12
2019-05-17T04:53:04.637Z,28.12
2019-05-17T04:54:04.627Z,28.12
2019-05-17T04:55:04.677Z,28.12
2019-05-17T04:56:05.407Z,28.12
2019-05-17T04:57:04.596Z,28.12
2019-05-17T04:58:04.600Z,28.12
2019-05-17T04:59:04.575Z,28.12
2019-05-17T05:00:04.614Z,28.12
2019-05-17T05:01:04.617Z,28.12
2019-05-17T05:02:05.517Z,28.12
2019-05-17T05:03:04.671Z,28.12
2019-05-17T05:04:04.538Z,28.12
2019-05-17T05:05:04.547Z,28.12
2019-05-17T05:06:04.502Z,28.12
2019-05-17T05:07:04.491Z,28.12
2019-05-17T05:08:04.500Z,28.12
2019-05-17T05:09:05.419Z,28.12
2019-05-17T05:10:04.501Z,28.12
2019-05-17T05:11:04.544Z,28.12
2019-05-17T05:12:06.246Z,28.12
2019-05-17T05:13:04.428Z,28.12
2019-05-17T05:14:04.416Z,28.12
2019-05-17T05:15:04.429Z,28.12
2019-05-17T05:16:04.395Z,28.12
2019-05-17T05:17:05.054Z,33.75
2019-05-17T05:18:04.376Z,33.75
2019-05-17T05:19:04.976Z,33.75
2019-05-17T05:20:04.386Z,33.75
2019-05-17T05:21:04.363Z,33.75
2019-05-17T05:22:04.846Z,33.75
2019-05-17T05:23:05.105Z,33.75
2019-05-17T05:24:04.336Z,33.75
2019-05-17T05:25:04.299Z,33.75
2019-05-17T05:26:04.890Z,33.75
2019-05-17T05:27:04.279Z,33.75
2019-05-17T05:28:04.270Z,33.75
2019-05-17T05:29:04.257Z,33.75
2019-05-17T05:30:04.888Z,33.75
2019-05-17T05:31:04.257Z,33.75
2019-05-17T05:32:04.228Z,33.75
2019-05-17T05:33:04.219Z,33.75
2019-05-17T05:34:04.239Z,39.38
2019-05-17T05:35:04.195Z,39.38
2019-05-17T05:36:04.209Z,39.38
2019-05-17T05:37:04.176Z,39.38
2019-05-17T05:38:04.398Z,39.38
2019-05-17T05:39:04.160Z,39.38
2019-05-17T05:40:04.984Z,39.38
2019-05-17T05:41:04.158Z,39.38
2019-05-17T05:42:07.880Z,45.00
2019-05-17T05:43:05.109Z,45.00
2019-05-17T05:44:04.100Z,45.00
2019-05-17T05:45:04.090Z,45.00
2019-05-17T05:46:04.121Z,45.00
2019-05-17T05:47:04.070Z,45.00
2019-05-17T05:48:05.099Z,45.00
2019-05-17T05:49:04.088Z,45.00
2019-05-17T05:50:04.887Z,50.62
2019-05-17T05:51:05.955Z,50.62
2019-05-17T05:52:04.021Z,50.62
2019-05-17T05:53:04.038Z,50.62
2019-05-17T05:54:03.993Z,50.62
2019-05-17T05:55:04.145Z,50.62
2019-05-17T05:56:03.998Z,50.62
2019-05-17T05:57:03.963Z,50.62
2019-05-17T05:58:03.944Z,50.62
2019-05-17T05:59:03.940Z,50.62
2019-05-17T06:00:03.939Z,50.62
2019-05-17T06:01:03.950Z,50.62
2019-05-17T06:02:03.910Z,56.25
2019-05-17T06:03:04.295Z,56.25
2019-05-17T06:04:03.890Z,56.25
2019-05-17T06:05:03.879Z,56.25
2019-05-17T06:06:03.889Z,56.25
2019-05-17T06:07:03.897Z,56.25
2019-05-17T06:08:03.846Z,56.25
2019-05-17T06:09:03.835Z,56.25
2019-05-17T06:10:03.819Z,50.62
2019-05-17T06:11:03.867Z,56.25
2019-05-17T06:12:03.805Z,56.25
2019-05-17T06:13:03.801Z,56.25
2019-05-17T06:14:03.854Z,56.25
2019-05-17T06:15:03.774Z,56.25
2019-05-17T06:16:03.783Z,61.88
2019-05-17T06:17:03.757Z,61.88
2019-05-17T06:18:03.743Z,61.88
2019-05-17T06:19:03.733Z,61.88
2019-05-17T06:20:03.721Z,61.88
2019-05-17T06:21:03.732Z,61.88
2019-05-17T06:22:03.691Z,61.88
2019-05-17T06:23:03.710Z,61.88
2019-05-17T06:24:03.670Z,61.88
2019-05-17T06:25:04.208Z,67.50
2019-05-17T06:26:04.727Z,61.88
2019-05-17T06:27:03.646Z,61.88
2019-05-17T06:28:03.636Z,61.88
2019-05-17T06:29:03.626Z,61.88
2019-05-17T06:30:03.613Z,61.88
2019-05-17T06:31:03.603Z,61.88
2019-05-17T06:32:03.617Z,61.88
2019-05-17T06:33:03.603Z,56.25
2019-05-17T06:34:04.194Z,56.25
2019-05-17T06:35:03.562Z,61.88
2019-05-17T06:36:03.557Z,61.88
2019-05-17T06:37:03.596Z,61.88
2019-05-17T06:38:04.473Z,61.88
2019-05-17T06:39:03.521Z,56.25
2019-05-17T06:40:03.511Z,56.25
2019-05-17T06:41:03.500Z,56.25
2019-05-17T06:42:03.549Z,56.25
2019-05-17T06:43:04.450Z,61.88
2019-05-17T06:44:04.009Z,61.88
2019-05-17T06:45:03.460Z,61.88
2019-05-17T06:46:03.440Z,61.88
2019-05-17T06:47:03.458Z,61.88
2019-05-17T06:48:03.435Z,56.25
2019-05-17T06:49:03.422Z,61.88
2019-05-17T06:50:03.506Z,67.50
2019-05-17T06:51:03.392Z,67.50
2019-05-17T06:52:03.412Z,67.50
2019-05-17T06:53:03.392Z,67.50
2019-05-17T06:54:04.122Z,67.50
2019-05-17T06:55:05.812Z,67.50
2019-05-17T06:56:03.340Z,61.88
2019-05-17T06:57:03.508Z,61.88
2019-05-17T06:58:03.323Z,61.88
2019-05-17T06:59:03.309Z,61.88
2019-05-17T07:00:11.062Z,61.88
2019-05-17T07:01:04.287Z,67.50
2019-05-17T07:02:03.300Z,67.50
2019-05-17T07:03:03.267Z,67.50
2019-05-17T07:04:03.270Z,73.12
2019-05-17T07:05:03.246Z,73.12
2019-05-17T07:06:03.240Z,78.75
2019-05-17T07:07:04.109Z,84.38
2019-05-17T07:08:03.235Z,84.38
2019-05-17T07:09:03.746Z,84.38
2019-05-17T07:10:03.201Z,78.75
2019-05-17T07:11:03.176Z,78.75
2019-05-17T07:12:03.195Z,78.75
2019-05-17T07:13:03.163Z,73.12
2019-05-17T07:14:03.153Z,73.12
2019-05-17T07:15:04.271Z,73.12
2019-05-17T07:16:03.132Z,78.75
2019-05-17T07:17:03.164Z,78.75
2019-05-17T07:18:03.109Z,73.12
2019-05-17T07:19:03.100Z,78.75
2019-05-17T07:20:03.091Z,78.75
2019-05-17T07:21:03.694Z,78.75
2019-05-17T07:22:03.092Z,78.75
2019-05-17T07:23:03.057Z,78.75
2019-05-17T07:24:03.049Z,73.12
2019-05-17T07:25:03.038Z,78.75
2019-05-17T07:26:03.027Z,78.75
2019-05-17T07:27:03.116Z,78.75
2019-05-17T07:28:03.026Z,84.38
2019-05-17T07:29:02.993Z,90.00
2019-05-17T07:30:02.986Z,90.00
2019-05-17T07:31:02.975Z,90.00
2019-05-17T07:32:03.035Z,95.62
2019-05-17T07:33:03.812Z,95.62
2019-05-17T07:34:02.943Z,95.62
2019-05-17T07:35:02.931Z,90.00
2019-05-17T07:36:02.922Z,90.00
2019-05-17T07:37:02.911Z,84.38
2019-05-17T07:38:04.693Z,84.38
2019-05-17T07:39:02.890Z,84.38
2019-05-17T07:40:05.182Z,90.00
2019-05-17T07:41:02.869Z,90.00
2019-05-17T07:42:02.856Z,90.00
2019-05-17T07:43:10.417Z,90.00
2019-05-17T07:44:03.838Z,90.00
2019-05-17T07:45:02.825Z,90.00
2019-05-17T07:46:02.818Z,95.62
2019-05-17T07:47:02.797Z,95.62
2019-05-17T07:48:02.838Z,95.62
2019-05-17T07:49:02.860Z,95.62
2019-05-17T07:50:02.800Z,95.62
2019-05-17T07:51:02.763Z,101.25
2019-05-17T07:52:02.755Z,101.25
2019-05-17T07:53:02.763Z,101.25
2019-05-17T07:54:03.259Z,106.88
2019-05-17T07:55:03.664Z,101.25
2019-05-17T07:56:02.716Z,101.25
2019-05-17T07:57:02.781Z,106.88
2019-05-17T07:58:02.712Z,112.50
2019-05-17T07:59:02.679Z,112.50
2019-05-17T08:00:03.341Z,112.50
2019-05-17T08:01:02.659Z,118.12
2019-05-17T08:02:02.640Z,123.75
2019-05-17T08:03:02.685Z,118.12
2019-05-17T08:04:02.625Z,118.12
2019-05-17T08:05:02.608Z,118.12
2019-05-17T08:06:03.388Z,118.12
2019-05-17T08:07:02.628Z,118.12
2019-05-17T08:08:02.608Z,123.75
2019-05-17T08:09:04.360Z,123.75
2019-05-17T08:10:02.564Z,123.75
2019-05-17T08:11:02.545Z,123.75
2019-05-17T08:12:02.541Z,123.75
2019-05-17T08:13:02.557Z,123.75
2019-05-17T08:14:02.514Z,123.75
2019-05-17T08:15:02.504Z,123.75
2019-05-17T08:16:02.501Z,123.75
2019-05-17T08:17:02.491Z,123.75
2019-05-17T08:18:02.499Z,123.75
2019-05-17T08:19:02.464Z,129.38
2019-05-17T08:20:02.476Z,129.38
2019-05-17T08:21:02.439Z,129.38
2019-05-17T08:22:02.449Z,129.38
2019-05-17T08:23:05.056Z,123.75
2019-05-17T08:24:02.416Z,123.75
2019-05-17T08:25:02.398Z,123.75
2019-05-17T08:26:02.388Z,123.75
2019-05-17T08:27:02.376Z,123.75
2019-05-17T08:28:02.395Z,123.75
2019-05-17T08:29:03.256Z,123.75
2019-05-17T08:30:02.353Z,123.75
2019-05-17T08:31:02.337Z,129.38
2019-05-17T08:32:02.325Z,129.38
2019-05-17T08:33:02.366Z,129.38
2019-05-17T08:34:02.303Z,129.38
2019-05-17T08:35:02.293Z,129.38
2019-05-17T08:36:02.281Z,129.38
2019-05-17T08:37:02.271Z,123.75
2019-05-17T08:38:02.792Z,123.75
2019-05-17T08:39:02.283Z,123.75
2019-05-17T08:40:02.278Z,123.75
2019-05-17T08:41:02.222Z,123.75
2019-05-17T08:42:02.218Z,123.75
2019-05-17T08:43:02.228Z,123.75
2019-05-17T08:44:02.199Z,123.75
2019-05-17T08:45:02.728Z,123.75
2019-05-17T08:46:02.883Z,123.75
2019-05-17T08:47:02.727Z,123.75
2019-05-17T08:48:02.851Z,129.38
2019-05-17T08:49:02.137Z,129.38
2019-05-17T08:50:02.128Z,135.00
2019-05-17T08:51:02.825Z,135.00
2019-05-17T08:52:02.105Z,135.00
2019-05-17T08:53:02.096Z,140.62
2019-05-17T08:54:02.115Z,140.62
2019-05-17T08:55:02.073Z,140.62
2019-05-17T08:56:02.081Z,140.62
2019-05-17T08:57:02.054Z,140.62
2019-05-17T08:58:02.043Z,146.25
2019-05-17T08:59:02.074Z,146.25
2019-05-17T09:00:02.030Z,140.62
2019-05-17T09:01:02.038Z,140.62
2019-05-17T09:02:02.721Z,135.00
2019-05-17T09:03:01.988Z,140.62
2019-05-17T09:04:02.007Z,140.62
2019-05-17T09:05:01.994Z,140.62
2019-05-17T09:06:02.929Z,146.25
2019-05-17T09:07:03.208Z,151.88
2019-05-17T09:08:01.925Z,157.50
2019-05-17T09:09:01.946Z,163.12
2019-05-17T09:10:02.185Z,163.12
2019-05-17T09:11:01.898Z,163.12
2019-05-17T09:12:01.884Z,168.75
2019-05-17T09:13:01.874Z,168.75
2019-05-17T09:14:02.330Z,168.75
2019-05-17T09:15:01.851Z,168.75
2019-05-17T09:16:01.842Z,168.75
2019-05-17T09:17:01.837Z,174.38
2019-05-17T09:18:02.881Z,174.38
2019-05-17T09:19:01.864Z,174.38
2019-05-17T09:20:01.819Z,180.00
2019-05-17T09:21:01.790Z,180.00
2019-05-17T09:22:01.778Z,180.00
2019-05-17T09:23:01.768Z,174.38
2019-05-17T09:24:02.300Z,174.38
2019-05-17T09:25:01.754Z,168.75
2019-05-17T09:26:02.407Z,163.12
2019-05-17T09:27:01.758Z,180.00
2019-05-17T09:28:01.726Z,185.62
2019-05-17T09:29:01.767Z,185.62
2019-05-17T09:30:01.693Z,185.62
2019-05-17T09:31:01.684Z,196.88
2019-05-17T09:32:01.710Z,202.50
2019-05-17T09:33:01.666Z,208.12
2019-05-17T09:34:01.711Z,202.50
2019-05-17T09:35:01.642Z,202.50
2019-05-17T09:36:01.637Z,196.88
2019-05-17T09:37:01.626Z,191.25
2019-05-17T09:38:01.631Z,191.25
2019-05-17T09:39:01.648Z,196.88
2019-05-17T09:40:03.422Z,202.50
2019-05-17T09:41:01.570Z,208.12
2019-05-17T09:42:01.565Z,208.12
2019-05-17T09:43:01.551Z,219.38
2019-05-17T09:44:11.744Z,225.00
2019-05-17T09:45:02.538Z,236.25
2019-05-17T09:46:01.956Z,241.88
2019-05-17T09:47:01.518Z,247.50
2019-05-17T09:48:01.499Z,247.50
2019-05-17T09:49:01.534Z,253.12
2019-05-17T09:50:01.499Z,253.12
2019-05-17T09:51:01.478Z,258.75
2019-05-17T09:52:01.464Z,258.75
2019-05-17T09:53:01.446Z,258.75
2019-05-17T09:54:01.474Z,247.50
2019-05-17T09:55:03.367Z,253.12
2019-05-17T09:56:01.413Z,258.75
2019-05-17T09:57:01.412Z,281.25
2019-05-17T09:58:01.392Z,315.00
2019-05-17T09:59:01.388Z,331.88
2019-05-17T10:00:01.400Z,348.75
2019-05-17T10:01:01.704Z,354.38
2019-05-17T10:02:01.352Z,348.75
2019-05-17T10:03:01.339Z,354.38
2019-05-17T10:04:01.354Z,360.00
2019-05-17T10:05:01.684Z,371.25
2019-05-17T10:06:01.318Z,371.25
2019-05-17T10:07:01.296Z,388.12
2019-05-17T10:08:01.292Z,399.38
2019-05-17T10:09:01.275Z,410.62
2019-05-17T10:10:01.293Z,405.00
2019-05-17T10:11:08.426Z,416.25
2019-05-17T10:12:03.101Z,410.62
2019-05-17T10:13:01.234Z,388.12
2019-05-17T10:14:01.885Z,354.38
2019-05-17T10:15:01.243Z,376.88
2019-05-17T10:16:01.273Z,455.62
2019-05-17T10:17:01.227Z,489.38
2019-05-17T10:18:01.193Z,427.50
2019-05-17T10:19:01.218Z,495.00
2019-05-17T10:20:02.026Z,483.75
2019-05-17T10:21:01.149Z,686.25
2019-05-17T10:22:01.139Z,556.88
2019-05-17T10:23:01.128Z,528.75
2019-05-17T10:24:01.118Z,483.75
2019-05-17T10:25:01.134Z,517.50
2019-05-17T10:26:01.096Z,568.12
2019-05-17T10:27:01.108Z,551.25
2019-05-17T10:28:01.118Z,540.00
2019-05-17T10:29:01.067Z,483.75
2019-05-17T10:30:01.076Z,534.38
2019-05-17T10:31:02.273Z,489.38
2019-05-17T10:32:01.034Z,585.00
2019-05-17T10:33:01.024Z,675.00
2019-05-17T10:34:01.674Z,686.25
2019-05-17T10:35:01.668Z,708.75
2019-05-17T10:36:00.985Z,691.88
2019-05-17T10:37:00.974Z,264.38
2019-05-17T10:38:02.963Z,658.12
2019-05-17T10:39:00.952Z,652.50
2019-05-17T10:40:00.983Z,680.62
2019-05-17T10:41:00.932Z,691.88
2019-05-17T10:42:00.941Z,444.38
2019-05-17T10:43:00.928Z,376.88
2019-05-17T10:44:00.905Z,669.38
2019-05-17T10:45:00.921Z,703.12
2019-05-17T10:46:00.888Z,393.75
2019-05-17T10:47:00.879Z,708.75
2019-05-17T10:48:00.916Z,691.88
2019-05-17T10:49:00.853Z,669.38
2019-05-17T10:50:00.875Z,686.25
2019-05-17T10:51:00.829Z,697.50
2019-05-17T10:52:00.818Z,562.50
2019-05-17T10:53:00.823Z,281.25
2019-05-17T10:54:00.797Z,320.62
2019-05-17T10:55:00.837Z,708.75
2019-05-17T10:56:00.910Z,371.25
2019-05-17T10:57:00.766Z,714.38
2019-05-17T10:58:00.786Z,736.88
2019-05-17T10:59:00.743Z,748.12
2019-05-17T11:00:00.764Z,506.25
2019-05-17T11:01:00.999Z,433.12
2019-05-17T11:02:00.731Z,483.75
2019-05-17T11:03:00.705Z,455.62
2019-05-17T11:04:00.702Z,495.00
2019-05-17T11:05:01.030Z,742.50
2019-05-17T11:06:00.689Z,517.50
2019-05-17T11:07:01.485Z,281.25
2019-05-17T11:08:00.652Z,292.50
2019-05-17T11:09:00.643Z,196.88
2019-05-17T11:10:00.887Z,168.75
2019-05-17T11:11:00.611Z,151.88
2019-05-17T11:12:00.612Z,140.62
2019-05-17T11:13:02.118Z,140.62
2019-05-17T11:14:00.588Z,146.25
2019-05-17T11:15:11.106Z,146.25
2019-05-17T11:16:01.559Z,151.88
2019-05-17T11:17:00.549Z,157.50
2019-05-17T11:18:01.171Z,168.75
2019-05-17T11:19:00.528Z,191.25
2019-05-17T11:20:00.579Z,225.00
2019-05-17T11:21:00.515Z,253.12
2019-05-17T11:22:00.504Z,281.25
2019-05-17T11:23:00.494Z,337.50
2019-05-17T11:24:00.481Z,365.62
2019-05-17T11:25:00.496Z,337.50
2019-05-17T11:26:01.184Z,360.00
2019-05-17T11:27:00.444Z,365.62
2019-05-17T11:28:01.266Z,360.00
2019-05-17T11:29:00.423Z,421.88
2019-05-17T11:30:00.465Z,354.38
2019-05-17T11:31:00.409Z,348.75
2019-05-17T11:32:01.156Z,438.75
2019-05-17T11:33:01.142Z,438.75
2019-05-17T11:34:00.370Z,320.62
2019-05-17T11:35:02.045Z,303.75
2019-05-17T11:36:00.537Z,202.50
2019-05-17T11:37:00.339Z,180.00
2019-05-17T11:38:00.330Z,185.62
2019-05-17T11:39:00.337Z,174.38
2019-05-17T11:40:00.330Z,163.12
2019-05-17T11:41:19.562Z,151.88
2019-05-17T11:42:01.291Z,140.62
2019-05-17T11:43:00.278Z,135.00
2019-05-17T11:44:00.264Z,129.38
2019-05-17T11:45:00.285Z,135.00
2019-05-17T11:46:00.271Z,135.00
2019-05-17T11:47:00.235Z,129.38
2019-05-17T11:48:00.247Z,129.38
2019-05-17T11:49:00.218Z,129.38
2019-05-17T11:50:00.224Z,118.12
2019-05-17T11:51:00.213Z,112.50
2019-05-17T11:52:00.174Z,112.50
2019-05-17T11:53:00.822Z,112.50
2019-05-17T11:54:00.161Z,118.12
2019-05-17T11:55:00.172Z,129.38
2019-05-17T11:56:00.211Z,140.62
2019-05-17T11:57:00.123Z,168.75
2019-05-17T11:58:00.119Z,202.50
2019-05-17T11:59:00.110Z,258.75
2019-05-17T12:00:01.633Z,303.75
2019-05-17T12:01:00.110Z,309.38
2019-05-17T12:02:00.092Z,230.62
2019-05-17T12:03:00.067Z,208.12
2019-05-17T12:04:00.731Z,202.50
2019-05-17T12:05:00.045Z,196.88
2019-05-17T12:06:00.056Z,185.62
2019-05-17T12:07:00.061Z,185.62
2019-05-17T12:08:00.007Z,180.00
2019-05-17T12:09:00.000Z,168.75
2019-05-17T12:10:00.725Z,157.50
2019-05-17T12:11:00.170Z,157.50
2019-05-17T12:11:59.965Z,168.75
2019-05-17T12:12:59.954Z,191.25
2019-05-17T12:13:59.949Z,202.50
2019-05-17T12:14:59.935Z,202.50
2019-05-17T12:15:59.947Z,196.88
2019-05-17T12:16:59.913Z,213.75
2019-05-17T12:17:59.902Z,292.50
2019-05-17T12:18:59.915Z,315.00
2019-05-17T12:19:59.901Z,326.25
2019-05-17T12:20:59.899Z,236.25
2019-05-17T12:21:59.861Z,241.88
2019-05-17T12:22:59.849Z,236.25
2019-05-17T12:23:59.873Z,236.25
2019-05-17T12:24:59.827Z,225.00
2019-05-17T12:25:59.849Z,219.38
2019-05-17T12:26:59.824Z,219.38
2019-05-17T12:27:59.797Z,225.00
2019-05-17T12:28:59.785Z,219.38
2019-05-17T12:29:59.768Z,213.75
2019-05-17T12:30:59.801Z,247.50
2019-05-17T12:31:59.747Z,180.00
2019-05-17T12:32:59.746Z,174.38
2019-05-17T12:33:59.743Z,180.00
2019-05-17T12:34:59.719Z,180.00
2019-05-17T12:35:59.735Z,180.00
2019-05-17T12:36:59.721Z,191.25
2019-05-17T12:38:00.184Z,213.75
2019-05-17T12:38:59.676Z,253.12
2019-05-17T12:39:59.664Z,196.88
2019-05-17T12:40:59.684Z,196.88
2019-05-17T12:41:59.926Z,208.12
2019-05-17T12:42:59.632Z,219.38
2019-05-17T12:44:00.281Z,225.00
2019-05-17T12:44:59.612Z,230.62
2019-05-17T12:46:01.435Z,236.25
2019-05-17T12:46:59.591Z,241.88
2019-05-17T12:47:59.580Z,258.75
2019-05-17T12:49:02.078Z,292.50
2019-05-17T12:49:59.560Z,309.38